createdAt,value
2019-05-18T00:03:31.692Z,76.11
2019-05-18T00:07:33.843Z,76.05
2019-05-18T00:11:35.997Z,76.45
2019-05-18T00:15:38.137Z,75.67
2019-05-18T00:19:41.253Z,75.59
2019-05-18T00:23:43.622Z,76.06
2019-05-18T00:27:45.741Z,76.17
2019-05-18T00:31:47.901Z,76.84
2019-05-18T00:35:50.936Z,76.68
2019-05-18T00:39:53.038Z,76.71
2019-05-18T00:43:55.062Z,76.96
2019-05-18T00:47:57.201Z,77.24
2019-05-18T00:51:59.291Z,77.37
2019-05-18T00:56:01.351Z,78.10
2019-05-18T01:00:03.461Z,78.35
2019-05-18T01:04:05.729Z,78.61
2019-05-18T01:08:07.911Z,78.85
2019-05-18T01:12:10.084Z,78.76
2019-05-18T01:16:12.178Z,78.46
2019-05-18T01:20:14.528Z,78.65
2019-05-18T01:24:16.827Z,78.83
2019-05-18T01:28:18.890Z,79.40
2019-05-18T01:32:21.032Z,79.66
2019-05-18T01:36:23.248Z,79.42
2019-05-18T01:40:25.463Z,79.24
2019-05-18T01:44:27.675Z,79.38
2019-05-18T01:48:29.816Z,80.37
2019-05-18T01:52:32.052Z,80.47
2019-05-18T01:56:34.279Z,80.49
2019-05-18T02:00:36.423Z,80.04
2019-05-18T02:04:38.541Z,80.21
2019-05-18T02:08:40.661Z,80.39
2019-05-18T02:12:42.802Z,80.34
2019-05-18T02:16:45.153Z,80.34
2019-05-18T02:20:47.137Z,80.90
2019-05-18T02:24:49.573Z,80.74
2019-05-18T02:28:52.021Z,80.82
2019-05-18T02:32:54.241Z,80.72
2019-05-18T02:36:56.617Z,80.61
2019-05-18T02:40:58.816Z,81.02
2019-05-18T02:45:01.590Z,80.49
2019-05-18T02:49:04.029Z,80.06
2019-05-18T02:53:07.371Z,78.86
2019-05-18T02:57:09.607Z,78.10
2019-05-18T03:01:11.699Z,77.22
2019-05-18T03:05:14.516Z,76.50
2019-05-18T03:09:17.699Z,75.58
2019-05-18T03:13:19.741Z,75.55
2019-05-18T03:17:21.849Z,76.01
2019-05-18T03:21:23.896Z,76.24
2019-05-18T03:25:26.353Z,76.39
2019-05-18T03:29:28.450Z,76.58
2019-05-18T03:33:30.883Z,76.27
2019-05-18T03:37:33.118Z,76.54
2019-05-18T03:41:35.561Z,76.32
2019-05-18T03:45:37.730Z,75.21
2019-05-18T03:49:40.619Z,76.03
2019-05-18T03:53:42.863Z,75.50
2019-05-18T03:57:44.975Z,74.21
2019-05-18T04:01:47.135Z,74.37
2019-05-18T04:05:49.143Z,74.39
2019-05-18T04:09:51.183Z,72.43
2019-05-18T04:13:53.215Z,72.42
2019-05-18T04:17:55.482Z,70.41
2019-05-18T04:21:58.570Z,69.91
2019-05-18T04:26:01.233Z,68.77
2019-05-18T04:30:03.381Z,67.06
2019-05-18T04:34:05.588Z,64.00
2019-05-18T04:38:08.198Z,64.71
2019-05-18T04:42:10.177Z,61.48
2019-05-18T04:46:12.392Z,61.39
2019-05-18T04:50:15.183Z,61.64
2019-05-18T04:54:17.309Z,60.12
2019-05-18T04:58:19.304Z,57.09
2019-05-18T05:02:21.574Z,56.19
2019-05-18T05:06:23.719Z,54.00
2019-05-18T05:10:25.864Z,52.31
2019-05-18T05:14:27.884Z,52.50
2019-05-18T05:18:30.145Z,53.73
2019-05-18T05:22:32.752Z,51.40
2019-05-18T05:26:34.997Z,51.06
2019-05-18T05:30:38.845Z,48.82
2019-05-18T05:34:40.864Z,48.67
2019-05-18T05:38:43.479Z,48.22
2019-05-18T05:42:45.263Z,46.93
2019-05-18T05:46:47.002Z,47.45
2019-05-18T05:50:48.791Z,46.43
2019-05-18T05:54:50.614Z,46.39
2019-05-18T05:58:52.501Z,45.03
2019-05-18T06:02:54.533Z,44.30
2019-05-18T06:06:59.522Z,42.83
2019-05-18T06:11:01.552Z,43.50
2019-05-18T06:15:03.738Z,42.62
2019-05-18T06:19:05.780Z,42.56
2019-05-18T06:23:07.974Z,43.42
2019-05-18T06:27:09.986Z,40.02
2019-05-18T06:31:12.003Z,42.17
2019-05-18T06:35:14.561Z,40.42
2019-05-18T06:39:16.633Z,40.98
2019-05-18T06:43:18.695Z,39.04
2019-05-18T06:47:20.811Z,41.38
2019-05-18T06:51:22.834Z,40.39
2019-05-18T06:55:25.812Z,39.27
2019-05-18T06:59:29.114Z,39.57
2019-05-18T07:03:31.407Z,37.19
2019-05-18T07:07:33.504Z,38.26
2019-05-18T07:11:35.717Z,37.74
2019-05-18T07:15:37.840Z,36.51
2019-05-18T07:19:39.983Z,37.89
2019-05-18T07:23:43.865Z,37.37
2019-05-18T07:27:46.990Z,37.40
2019-05-18T07:31:49.120Z,37.74
2019-05-18T07:35:51.361Z,35.35
2019-05-18T07:39:53.505Z,34.88
2019-05-18T07:43:55.582Z,34.29
2019-05-18T07:47:57.652Z,35.44
2019-05-18T07:51:59.654Z,35.87
2019-05-18T07:56:01.818Z,33.29
2019-05-18T08:00:04.427Z,34.21
2019-05-18T08:04:07.518Z,33.79
2019-05-18T08:08:09.710Z,34.15
2019-05-18T08:12:11.737Z,33.78
2019-05-18T08:16:15.536Z,34.24
2019-05-18T08:20:17.736Z,34.20
2019-05-18T08:24:19.946Z,33.45
2019-05-18T08:28:22.114Z,34.62
2019-05-18T08:32:24.199Z,34.07
2019-05-18T08:36:26.966Z,33.21
2019-05-18T08:40:29.284Z,33.54
2019-05-18T08:44:32.858Z,32.77
2019-05-18T08:48:35.278Z,33.12
2019-05-18T08:52:37.638Z,34.56
2019-05-18T08:56:39.771Z,33.87
2019-05-18T09:00:41.885Z,34.13
2019-05-18T09:04:45.250Z,32.84
2019-05-18T09:08:47.270Z,31.50
2019-05-18T09:12:49.362Z,31.99
2019-05-18T09:16:51.443Z,32.02
2019-05-18T09:20:53.683Z,32.11
2019-05-18T09:24:55.773Z,31.94
2019-05-18T09:28:57.901Z,31.86
2019-05-18T09:33:00.154Z,31.75
2019-05-18T09:37:02.310Z,31.99
2019-05-18T09:41:04.601Z,31.62
2019-05-18T09:45:07.998Z,31.98
2019-05-18T09:49:10.198Z,31.04
2019-05-18T09:53:12.478Z,31.83
2019-05-18T09:57:14.841Z,31.11
2019-05-18T10:01:17.006Z,32.59
2019-05-18T10:05:19.218Z,32.03
2019-05-18T10:09:21.360Z,32.04
2019-05-18T10:13:23.475Z,32.39
2019-05-18T10:17:25.595Z,32.39
2019-05-18T10:21:28.773Z,32.16
2019-05-18T10:25:31.039Z,30.81
2019-05-18T10:29:33.122Z,30.81
2019-05-18T10:33:35.229Z,32.31
2019-05-18T10:37:37.343Z,31.99
2019-05-18T10:41:40.696Z,31.85
2019-05-18T10:45:45.083Z,31.10
2019-05-18T10:49:46.703Z,31.10
2019-05-18T10:53:48.909Z,30.52
2019-05-18T10:57:51.265Z,31.10
2019-05-18T11:01:53.459Z,31.10
2019-05-18T11:05:57.464Z,30.47
2019-05-18T11:09:59.716Z,30.00
2019-05-18T11:14:02.588Z,30.00
2019-05-18T11:18:05.518Z,30.04
2019-05-18T11:22:07.484Z,30.98
2019-05-18T11:26:09.690Z,30.95
2019-05-18T11:30:12.304Z,30.60
2019-05-18T11:34:14.101Z,30.35
2019-05-18T11:38:18.714Z,30.69
2019-05-18T11:42:26.660Z,29.37
2019-05-18T11:46:29.008Z,30.77
2019-05-18T11:50:33.102Z,29.03
2019-05-18T11:54:36.646Z,28.66
2019-05-18T11:58:41.753Z,28.66
2019-05-18T12:02:44.998Z,28.36
2019-05-18T12:06:49.065Z,30.22
2019-05-18T12:10:52.286Z,28.80
2019-05-18T12:14:54.317Z,28.42
2019-05-18T12:18:57.639Z,29.16
2019-05-18T12:23:02.296Z,29.89
2019-05-18T12:27:04.601Z,30.14
2019-05-18T12:31:06.733Z,29.26
2019-05-18T12:35:09.061Z,28.21
2019-05-18T12:39:11.215Z,30.03
2019-05-18T12:43:13.353Z,28.89
2019-05-18T12:47:16.624Z,28.89
2019-05-18T12:51:18.731Z,28.75
2019-05-18T12:55:21.446Z,28.11
2019-05-18T12:59:23.573Z,28.90
2019-05-18T13:03:25.692Z,28.26
2019-05-18T13:07:27.824Z,28.97
2019-05-18T13:11:29.743Z,28.97
2019-05-18T13:15:31.574Z,28.44
2019-05-18T13:19:33.421Z,26.92
2019-05-18T13:23:35.258Z,26.70
2019-05-18T13:27:39.833Z,26.11
2019-05-18T13:31:40.946Z,26.63
2019-05-18T13:35:45.522Z,26.88
2019-05-18T13:39:47.044Z,26.50
2019-05-18T13:43:50.766Z,26.33
2019-05-18T13:47:52.829Z,24.81
2019-05-18T13:51:54.929Z,24.81
2019-05-18T13:55:57.074Z,24.50
2019-05-18T14:00:00.026Z,23.89
2019-05-18T14:04:02.259Z,23.89
2019-05-18T14:08:04.463Z,24.85
2019-05-18T14:12:06.567Z,23.46
2019-05-18T14:16:09.866Z,25.10
2019-05-18T14:20:13.664Z,25.04
2019-05-18T14:24:15.739Z,25.73
2019-05-18T14:28:17.849Z,25.57
2019-05-18T14:32:20.099Z,25.18
2019-05-18T14:36:22.133Z,24.90
2019-05-18T14:40:24.267Z,22.59
2019-05-18T14:44:26.297Z,22.64
2019-05-18T14:48:28.618Z,21.03
2019-05-18T14:52:30.825Z,20.22
2019-05-18T14:56:35.330Z,20.52
2019-05-18T15:00:37.259Z,20.34
2019-05-18T15:04:39.129Z,20.08
2019-05-18T15:08:41.962Z,20.27
2019-05-18T15:12:44.222Z,19.13
2019-05-18T15:16:46.473Z,18.99
2019-05-18T15:20:48.594Z,17.48
2019-05-18T15:24:50.764Z,17.76
2019-05-18T15:28:52.788Z,18.44
2019-05-18T15:32:55.010Z,18.95
2019-05-18T15:36:58.219Z,17.68
2019-05-18T15:41:00.458Z,17.31
2019-05-18T15:45:02.729Z,17.87
2019-05-18T15:49:06.128Z,18.35
2019-05-18T15:53:08.249Z,19.99
2019-05-18T15:57:10.393Z,20.89
2019-05-18T16:01:12.757Z,22.53
2019-05-18T16:05:16.378Z,23.81
2019-05-18T16:09:18.543Z,24.36
2019-05-18T16:13:20.792Z,25.15
2019-05-18T16:17:36.980Z,25.34
2019-05-18T16:21:27.053Z,25.47
2019-05-18T16:25:29.413Z,26.02
2019-05-18T16:29:31.619Z,26.65
2019-05-18T16:33:33.827Z,27.40
2019-05-18T16:37:35.996Z,27.86
2019-05-18T16:41:38.028Z,27.85
2019-05-18T16:45:40.123Z,28.18
2019-05-18T16:49:42.478Z,29.03
2019-05-18T16:53:49.463Z,28.81
2019-05-18T16:57:49.504Z,29.16
2019-05-18T17:01:51.518Z,29.64
2019-05-18T17:05:53.746Z,29.89
2019-05-18T17:09:55.875Z,30.29
2019-05-18T17:13:57.978Z,30.16
2019-05-18T17:18:00.247Z,31.04
2019-05-18T17:22:02.386Z,31.26
2019-05-18T17:26:04.555Z,31.30
2019-05-18T17:30:07.518Z,31.73
2019-05-18T17:34:09.724Z,32.78
2019-05-18T17:38:11.817Z,32.76
2019-05-18T17:42:14.021Z,32.58
2019-05-18T17:46:16.193Z,33.16
2019-05-18T17:50:19.828Z,34.29
2019-05-18T17:54:21.940Z,33.61
2019-05-18T17:58:24.101Z,36.78
2019-05-18T18:02:26.209Z,36.19
2019-05-18T18:06:28.459Z,40.51
2019-05-18T18:10:30.566Z,41.31
2019-05-18T18:14:32.709Z,42.40
2019-05-18T18:18:35.106Z,42.88
2019-05-18T18:22:37.449Z,43.03
2019-05-18T18:26:39.592Z,43.09
2019-05-18T18:30:41.788Z,43.97
2019-05-18T18:34:47.755Z,44.32
2019-05-18T18:38:51.561Z,45.39
2019-05-18T18:42:55.041Z,46.24
2019-05-18T18:46:58.344Z,45.68
2019-05-18T18:51:03.986Z,46.02
2019-05-18T18:55:06.886Z,47.22
2019-05-18T18:59:20.656Z,47.30
2019-05-18T19:03:22.901Z,47.58
2019-05-18T19:07:24.952Z,47.20
2019-05-18T19:11:29.687Z,47.62
2019-05-18T19:15:31.258Z,49.04
2019-05-18T19:19:34.322Z,49.76
2019-05-18T19:23:36.315Z,49.64
2019-05-18T19:27:54.095Z,50.17
2019-05-18T19:31:44.981Z,50.95
2019-05-18T19:35:47.197Z,50.53
2019-05-18T19:39:49.707Z,50.34
2019-05-18T19:43:52.500Z,52.58
2019-05-18T19:47:54.621Z,51.42
2019-05-18T19:51:57.062Z,50.70
2019-05-18T19:55:59.160Z,50.27
2019-05-18T20:00:01.341Z,49.88
2019-05-18T20:04:03.839Z,49.53
2019-05-18T20:08:06.126Z,49.56
2019-05-18T20:12:08.202Z,51.02
2019-05-18T20:16:10.206Z,51.33
2019-05-18T20:20:12.547Z,51.89
2019-05-18T20:24:14.671Z,50.47
2019-05-18T20:28:23.871Z,51.23
2019-05-18T20:32:20.594Z,51.76
2019-05-18T20:36:22.689Z,52.52
2019-05-18T20:40:24.874Z,52.93
2019-05-18T20:44:26.970Z,53.34
2019-05-18T20:48:29.025Z,53.07
2019-05-18T20:52:31.236Z,53.13
2019-05-18T20:56:33.437Z,53.56
2019-05-18T21:00:38.328Z,53.62
2019-05-18T21:04:39.440Z,54.03
2019-05-18T21:08:41.556Z,54.30
2019-05-18T21:12:43.701Z,54.02
2019-05-18T21:16:45.930Z,54.96
2019-05-18T21:20:48.427Z,54.65
2019-05-18T21:24:50.485Z,56.63
2019-05-18T21:28:57.598Z,56.57
2019-05-18T21:32:56.607Z,57.14
2019-05-18T21:36:58.822Z,58.33
2019-05-18T21:41:00.857Z,57.22
2019-05-18T21:45:02.986Z,56.62
2019-05-18T21:49:05.297Z,56.27
2019-05-18T21:53:08.792Z,56.34
2019-05-18T21:57:10.896Z,56.65
2019-05-18T22:01:13.163Z,57.91
2019-05-18T22:05:15.331Z,59.20
2019-05-18T22:09:17.457Z,60.31
2019-05-18T22:13:19.712Z,59.55
2019-05-18T22:17:21.862Z,59.16
2019-05-18T22:21:23.876Z,61.23
2019-05-18T22:25:26.002Z,62.96
2019-05-18T22:29:28.004Z,62.67
2019-05-18T22:33:30.127Z,62.81
2019-05-18T22:37:32.449Z,62.26
2019-05-18T22:41:34.600Z,61.62
2019-05-18T22:45:36.826Z,61.82
2019-05-18T22:49:38.853Z,63.83
2019-05-18T22:53:41.478Z,63.78
2019-05-18T22:57:43.658Z,63.13
2019-05-18T23:01:45.657Z,62.56
2019-05-18T23:05:47.795Z,64.98
2019-05-18T23:09:50.012Z,63.64
2019-05-18T23:13:52.115Z,64.58
2019-05-18T23:17:54.176Z,65.63
2019-05-18T23:21:56.268Z,65.86
2019-05-18T23:25:58.364Z,66.95
2019-05-18T23:30:00.434Z,67.33
2019-05-18T23:34:03.823Z,67.79
2019-05-18T23:38:05.965Z,67.21
2019-05-18T23:42:07.957Z,67.57
2019-05-18T23:46:10.081Z,69.07
2019-05-18T23:50:12.502Z,69.05
2019-05-18T23:54:16.244Z,69.21
2019-05-18T23:58:18.123Z,69.30
